Time;durP1;ratioP1;P1;durP2;ratioP2;P2;SDS_P1;SDS_P2;PMS_P1;PMS_P2;Temp;Humidity;BMP_temperature;BMP_pressure;BME280_temperature;BME280_humidity;BME280_pressure;Samples;Min_cycle;Max_cycle;Signal;HPM_P1;HPM_P2
2021/07/21 00:00:51;;;;;;;1.08;1.05;;;17.00;99.90;;;;;;5090439;28;20647;-70
2021/07/21 00:03:19;;;;;;;2.17;0.70;;;17.00;99.90;;;;;;5089681;28;20218;-71
2021/07/21 00:05:47;;;;;;;1.63;1.52;;;17.00;99.90;;;;;;5090177;28;20255;-71
2021/07/21 00:08:13;;;;;;;0.77;0.65;;;16.90;99.90;;;;;;5090327;28;20161;-71
2021/07/21 00:10:40;;;;;;;2.47;1.08;;;16.90;99.90;;;;;;5090332;28;20184;-71
2021/07/21 00:16:00;;;;;;;1.83;1.40;;;16.60;99.90;;;;;;5090167;28;20163;-71
2021/07/21 00:20:54;;;;;;;0.65;0.65;;;16.30;99.90;;;;;;5090010;28;20210;-69
2021/07/21 00:23:20;;;;;;;1.85;1.75;;;16.30;99.90;;;;;;5088271;28;20192;-70
2021/07/21 00:25:47;;;;;;;1.73;1.63;;;16.40;99.90;;;;;;5089742;28;20167;-71
2021/07/21 00:28:14;;;;;;;1.23;1.05;;;16.40;99.90;;;;;;5089725;28;20220;-71
2021/07/21 00:30:42;;;;;;;3.47;1.70;;;16.30;99.90;;;;;;5089571;28;20321;-69
2021/07/21 00:33:07;;;;;;;0.68;0.68;;;16.20;99.90;;;;;;5089023;28;20546;-70
2021/07/21 00:35:34;;;;;;;1.33;1.30;;;16.20;99.90;;;;;;5088001;28;20182;-71
2021/07/21 00:37:59;;;;;;;0.88;0.63;;;16.20;99.90;;;;;;5089537;28;20227;-71
2021/07/21 00:40:26;;;;;;;12.70;1.05;;;16.30;99.90;;;;;;5087917;28;20172;-71
2021/07/21 00:42:52;;;;;;;0.57;0.55;;;16.30;99.90;;;;;;5088645;28;20191;-72
2021/07/21 00:45:19;;;;;;;0.20;0.20;;;16.30;99.90;;;;;;5088100;28;20202;-70
2021/07/21 00:47:45;;;;;;;2.35;1.55;;;16.20;99.90;;;;;;5087769;28;20240;-71
2021/07/21 00:50:12;;;;;;;1.25;0.93;;;16.00;99.90;;;;;;5089212;28;20194;-71
2021/07/21 00:52:41;;;;;;;2.13;1.52;;;15.90;99.90;;;;;;5089232;28;20735;-71
2021/07/21 00:55:10;;;;;;;1.48;1.38;;;16.00;99.90;;;;;;5087916;28;20293;-71
2021/07/21 00:57:37;;;;;;;1.17;0.85;;;16.10;99.90;;;;;;5087866;28;20251;-71
2021/07/21 01:00:06;;;;;;;1.10;1.00;;;15.90;99.90;;;;;;5089222;28;20558;-71
2021/07/21 01:02:32;;;;;;;2.05;1.95;;;15.80;99.90;;;;;;5088614;28;20160;-71
2021/07/21 01:04:58;;;;;;;0.88;0.50;;;15.80;99.90;;;;;;5089102;28;20168;-71
2021/07/21 01:07:24;;;;;;;0.98;0.95;;;15.80;99.90;;;;;;5088978;28;20180;-71
2021/07/21 01:09:50;;;;;;;0.90;0.80;;;15.80;99.90;;;;;;5087483;28;20196;-71
2021/07/21 01:12:36;;;;;;;0.95;0.73;;;15.70;99.90;;;;;;5088935;28;20175;-71
2021/07/21 01:15:08;;;;;;;1.30;1.25;;;15.70;99.90;;;;;;5088821;28;20143;-71
2021/07/21 01:17:58;;;;;;;1.48;1.38;;;15.80;99.90;;;;;;5088955;28;20148;-71
2021/07/21 01:20:45;;;;;;;0.98;0.98;;;15.80;99.90;;;;;;5088807;28;20203;-71
2021/07/21 01:23:36;;;;;;;0.30;0.30;;;15.90;99.90;;;;;;5088318;28;20197;-71
2021/07/21 01:26:11;;;;;;;0.63;0.63;;;15.90;99.90;;;;;;5088787;28;20660;-72
2021/07/21 01:28:44;;;;;;;2.20;0.73;;;16.00;99.90;;;;;;5088723;28;20190;-71
2021/07/21 01:31:15;;;;;;;0.63;0.40;;;15.90;99.90;;;;;;5088900;28;20210;-72
2021/07/21 01:33:43;;;;;;;1.88;1.38;;;15.90;99.90;;;;;;5088151;28;20203;-72
2021/07/21 01:36:14;;;;;;;2.58;1.42;;;15.80;99.90;;;;;;5087303;28;20179;-72
2021/07/21 01:38:45;;;;;;;1.35;1.25;;;15.80;99.90;;;;;;5087401;28;20220;-72
2021/07/21 01:41:17;;;;;;;2.30;0.75;;;15.80;99.90;;;;;;5084364;28;20211;-70
2021/07/21 01:43:46;;;;;;;0.90;0.90;;;15.80;99.90;;;;;;5068440;28;20188;-70
2021/07/21 01:46:12;;;;;;;0.95;0.93;;;15.70;99.90;;;;;;5085887;28;20729;-71
2021/07/21 01:48:45;;;;;;;1.27;1.17;;;15.70;99.90;;;;;;5088593;28;20164;-71
2021/07/21 01:51:13;;;;;;;2.45;1.42;;;15.70;99.90;;;;;;5087232;28;20160;-71
2021/07/21 01:53:40;;;;;;;3.08;1.58;;;15.80;99.90;;;;;;5087972;28;20199;-71
2021/07/21 01:56:08;;;;;;;2.08;1.98;;;15.60;99.90;;;;;;5088560;28;20158;-71
2021/07/21 01:58:36;;;;;;;3.30;3.03;;;15.40;99.90;;;;;;5087155;28;20543;-71
2021/07/21 02:01:06;;;;;;;0.40;0.40;;;15.20;99.90;;;;;;5088500;28;20156;-71
2021/07/21 02:03:33;;;;;;;0.93;0.93;;;15.30;99.90;;;;;;5087843;28;20192;-71
2021/07/21 02:06:02;;;;;;;1.48;1.20;;;15.30;99.90;;;;;;5088436;28;20161;-71
2021/07/21 02:08:29;;;;;;;1.50;1.42;;;15.30;99.90;;;;;;5088388;28;20552;-71
2021/07/21 02:11:01;;;;;;;0.73;0.73;;;15.40;99.90;;;;;;5088368;28;20160;-71
2021/07/21 02:13:28;;;;;;;0.65;0.45;;;15.50;99.90;;;;;;5086991;28;20251;-70
2021/07/21 02:15:56;;;;;;;1.20;1.20;;;15.40;99.90;;;;;;5088314;28;20160;-71
2021/07/21 02:18:22;;;;;;;1.33;1.23;;;15.30;99.90;;;;;;5088338;28;20651;-70
2021/07/21 02:20:50;;;;;;;1.10;0.65;;;15.10;99.90;;;;;;5088304;28;20228;-70
2021/07/21 02:23:18;;;;;;;1.48;1.48;;;15.10;99.90;;;;;;5087700;28;20251;-70
2021/07/21 02:25:45;;;;;;;3.08;1.23;;;15.10;99.90;;;;;;5088242;28;20161;-71
2021/07/21 02:28:13;;;;;;;3.20;1.45;;;15.10;99.90;;;;;;5090905;28;20160;-71
2021/07/21 02:30:39;;;;;;;0.85;0.85;;;15.20;99.90;;;;;;5091901;28;20188;-71
2021/07/21 02:33:20;;;;;;;1.10;1.10;;;15.00;99.90;;;;;;5091328;28;20192;-69
2021/07/21 02:35:46;;;;;;;0.77;0.77;;;15.00;99.90;;;;;;5091911;28;20179;-70
2021/07/21 02:38:13;;;;;;;2.50;1.20;;;15.00;99.90;;;;;;5090956;28;20182;-71
2021/07/21 02:40:41;;;;;;;0.77;0.77;;;15.00;99.90;;;;;;5091048;28;20163;-71
2021/07/21 02:43:07;;;;;;;3.63;1.17;;;15.10;99.90;;;;;;5090061;28;20200;-71
2021/07/21 02:45:35;;;;;;;2.08;1.67;;;15.10;99.90;;;;;;5091417;28;20160;-72
2021/07/21 02:48:06;;;;;;;2.03;1.15;;;15.10;99.90;;;;;;5091287;28;20249;-71
2021/07/21 02:50:33;;;;;;;1.92;1.83;;;15.10;99.90;;;;;;5091276;28;20203;-71
2021/07/21 02:53:03;;;;;;;1.80;1.70;;;15.20;99.90;;;;;;5089749;28;20195;-71
2021/07/21 02:55:48;;;;;;;1.60;0.65;;;15.10;99.90;;;;;;5091202;28;20164;-71
2021/07/21 02:58:48;;;;;;;2.33;2.22;;;15.00;99.90;;;;;;5090104;28;20184;-71
2021/07/21 03:01:19;;;;;;;0.32;0.32;;;14.90;99.90;;;;;;5091589;28;20621;-71
2021/07/21 03:03:47;;;;;;;1.45;1.35;;;15.10;99.90;;;;;;5090036;28;20204;-71
2021/07/21 03:06:16;;;;;;;1.58;1.48;;;15.10;99.90;;;;;;5091377;28;20229;-71
2021/07/21 03:08:44;;;;;;;0.45;0.45;;;15.10;99.90;;;;;;5091302;28;20156;-71
2021/07/21 03:11:12;;;;;;;1.33;1.23;;;15.10;99.90;;;;;;5091297;28;20156;-71
2021/07/21 03:13:59;;;;;;;4.13;1.75;;;15.10;99.90;;;;;;5090611;28;20198;-71
2021/07/21 03:16:29;;;;;;;1.95;1.40;;;15.10;99.90;;;;;;5091382;28;20153;-71
2021/07/21 03:19:01;;;;;;;1.08;1.00;;;15.00;99.90;;;;;;5091233;28;20159;-71
2021/07/21 03:21:29;;;;;;;1.58;1.52;;;14.90;99.90;;;;;;5091179;28;20190;-71
2021/07/21 03:23:56;;;;;;;1.13;1.13;;;14.80;99.90;;;;;;5090696;28;20196;-71
2021/07/21 03:26:22;;;;;;;1.90;1.27;;;14.90;99.90;;;;;;5091078;28;20164;-71
2021/07/21 03:28:51;;;;;;;1.60;1.50;;;15.00;99.90;;;;;;5089654;28;20218;-71
2021/07/21 03:31:18;;;;;;;0.60;0.43;;;15.00;99.90;;;;;;5091130;28;20206;-71
2021/07/21 03:33:47;;;;;;;0.17;0.17;;;14.80;99.90;;;;;;5090390;28;20202;-71
2021/07/21 03:36:14;;;;;;;1.20;1.20;;;14.80;99.90;;;;;;5089456;28;20176;-71
2021/07/21 03:38:42;;;;;;;0.47;0.47;;;14.80;99.90;;;;;;5089702;28;20251;-71
2021/07/21 03:41:10;;;;;;;8.05;1.80;;;14.90;99.90;;;;;;5090789;28;20155;-71
2021/07/21 03:43:37;;;;;;;3.92;1.45;;;15.00;99.90;;;;;;5090357;28;20233;-71
2021/07/21 03:46:04;;;;;;;23.73;1.58;;;15.00;99.90;;;;;;5090444;28;20194;-71
2021/07/21 03:48:30;;;;;;;1.75;1.65;;;14.90;99.90;;;;;;5090474;28;20152;-71
2021/07/21 03:50:59;;;;;;;1.08;1.08;;;14.90;99.90;;;;;;5090369;28;20160;-71
2021/07/21 03:53:26;;;;;;;1.35;1.25;;;14.90;99.90;;;;;;5090356;28;20247;-71
2021/07/21 03:55:55;;;;;;;0.50;0.50;;;15.00;99.90;;;;;;5090578;28;20306;-71
2021/07/21 03:58:21;;;;;;;1.10;1.00;;;15.10;99.90;;;;;;5090406;28;20226;-71
2021/07/21 04:00:49;;;;;;;1.13;1.10;;;15.20;99.90;;;;;;5088866;28;20180;-71
2021/07/21 04:03:18;;;;;;;1.13;0.80;;;15.30;99.90;;;;;;5088420;28;20230;-71
2021/07/21 04:05:46;;;;;;;1.52;1.42;;;15.30;99.90;;;;;;5088869;28;20195;-71
2021/07/21 04:08:14;;;;;;;2.67;2.08;;;15.40;99.90;;;;;;5088872;28;20211;-71
2021/07/21 04:10:40;;;;;;;1.65;1.55;;;15.40;99.90;;;;;;5089985;28;20184;-71
2021/07/21 04:13:08;;;;;;;1.13;1.13;;;15.60;99.90;;;;;;5090002;28;20286;-71
2021/07/21 04:15:35;;;;;;;2.38;2.28;;;15.80;99.90;;;;;;5089889;28;20160;-71
2021/07/21 04:18:02;;;;;;;1.25;1.17;;;16.00;99.90;;;;;;5090140;28;20216;-71
2021/07/21 04:20:30;;;;;;;1.65;1.55;;;16.30;99.90;;;;;;5089959;28;20152;-71
2021/07/21 04:22:57;;;;;;;1.08;1.08;;;16.40;99.90;;;;;;5089253;28;20191;-71
2021/07/21 04:25:24;;;;;;;1.67;1.58;;;16.50;99.90;;;;;;5089878;28;20225;-71
2021/07/21 04:27:51;;;;;;;2.80;2.60;;;16.40;99.90;;;;;;5089705;28;20160;-71
2021/07/21 04:30:17;;;;;;;1.98;1.38;;;16.60;99.90;;;;;;5089694;28;20184;-71
2021/07/21 04:32:44;;;;;;;2.85;2.65;;;16.70;99.90;;;;;;5089268;28;20151;-71
2021/07/21 04:35:11;;;;;;;1.33;1.30;;;16.90;99.90;;;;;;5089600;28;20160;-71
2021/07/21 04:37:41;;;;;;;0.20;0.20;;;17.30;99.90;;;;;;5089526;28;20179;-71
2021/07/21 04:40:12;;;;;;;2.90;2.58;;;17.40;99.90;;;;;;5089511;28;20152;-71
2021/07/21 04:42:39;;;;;;;0.75;0.75;;;17.50;99.90;;;;;;5089313;28;20152;-71
2021/07/21 04:45:06;;;;;;;0.82;0.70;;;17.50;99.90;;;;;;5089526;28;20160;-71
2021/07/21 04:47:35;;;;;;;0.80;0.80;;;17.70;99.90;;;;;;5089181;28;20238;-71
2021/07/21 04:50:06;;;;;;;1.65;1.55;;;17.90;99.90;;;;;;5088777;28;20199;-71
2021/07/21 04:52:32;;;;;;;2.00;1.15;;;18.30;99.90;;;;;;5089316;28;20268;-71
2021/07/21 04:54:59;;;;;;;1.42;1.27;;;18.50;99.90;;;;;;5088678;28;20196;-71
2021/07/21 04:57:24;;;;;;;1.70;1.60;;;18.60;99.90;;;;;;5087993;28;20236;-71
2021/07/21 04:59:50;;;;;;;1.60;1.50;;;18.80;99.90;;;;;;5089072;28;20157;-72
2021/07/21 05:02:17;;;;;;;4.15;1.05;;;19.10;99.90;;;;;;5089270;28;20164;-71
2021/07/21 05:04:44;;;;;;;2.67;1.77;;;18.90;99.90;;;;;;5088619;28;20222;-72
2021/07/21 05:07:12;;;;;;;2.22;1.17;;;19.10;99.90;;;;;;5087601;28;20225;-71
2021/07/21 05:09:38;;;;;;;1.52;1.42;;;19.60;99.90;;;;;;5088872;28;20219;-72
2021/07/21 05:12:05;;;;;;;2.10;1.60;;;19.70;99.90;;;;;;5089018;28;20160;-71
2021/07/21 05:14:31;;;;;;;2.22;1.95;;;19.70;99.90;;;;;;5088956;28;20198;-72
2021/07/21 05:16:57;;;;;;;3.13;0.98;;;19.60;99.90;;;;;;5088930;28;20212;-72
2021/07/21 05:19:23;;;;;;;0.77;0.75;;;19.80;99.90;;;;;;5089038;28;20529;-72
2021/07/21 05:21:52;;;;;;;4.60;1.42;;;20.00;99.90;;;;;;5087247;28;20232;-72
2021/07/21 05:24:20;;;;;;;1.73;1.45;;;20.40;99.90;;;;;;5088353;28;20225;-72
2021/07/21 05:26:47;;;;;;;1.92;1.80;;;20.80;99.90;;;;;;5087238;28;20171;-72
2021/07/21 05:29:14;;;;;;;2.10;1.55;;;20.90;99.90;;;;;;5088754;28;20255;-72
2021/07/21 05:31:41;;;;;;;1.95;1.42;;;21.00;99.90;;;;;;5088751;28;20558;-72
2021/07/21 05:34:07;;;;;;;2.08;1.02;;;21.40;99.90;;;;;;5088061;28;20191;-72
2021/07/21 05:36:36;;;;;;;1.38;1.27;;;22.10;99.90;;;;;;5088663;28;20156;-72
2021/07/21 05:39:07;;;;;;;3.03;1.23;;;22.30;99.90;;;;;;5088624;28;20168;-72
2021/07/21 05:41:34;;;;;;;1.75;0.98;;;22.10;99.90;;;;;;5088877;28;20166;-72
2021/07/21 05:44:00;;;;;;;2.22;1.83;;;22.60;99.90;;;;;;5088441;28;20670;-72
2021/07/21 05:46:26;;;;;;;1.45;1.35;;;23.30;99.90;;;;;;5087074;28;20223;-72
2021/07/21 05:48:52;;;;;;;2.30;1.70;;;23.60;99.90;;;;;;5087113;28;20179;-72
2021/07/21 05:51:18;;;;;;;4.85;1.10;;;23.60;99.90;;;;;;5088376;28;20151;-72
2021/07/21 05:53:44;;;;;;;1.35;0.73;;;24.30;99.90;;;;;;5087816;28;20188;-72
2021/07/21 05:56:16;;;;;;;1.00;1.00;;;25.60;99.90;;;;;;5088527;28;20167;-72
2021/07/21 05:58:42;;;;;;;0.75;0.75;;;26.70;99.90;;;;;;5088376;28;20179;-72
2021/07/21 06:01:08;;;;;;;1.58;1.48;;;27.10;99.90;;;;;;5088319;28;20171;-72
2021/07/21 06:03:34;;;;;;;2.50;1.33;;;27.10;99.90;;;;;;5089859;28;20187;-72
2021/07/21 06:06:00;;;;;;;1.85;1.15;;;26.40;99.90;;;;;;5092397;28;20162;-71
2021/07/21 06:08:26;;;;;;;1.95;1.35;;;25.80;99.90;;;;;;5092201;28;20243;-71
2021/07/21 06:10:52;;;;;;;1.60;1.52;;;25.60;99.90;;;;;;5092231;28;20191;-71
2021/07/21 06:13:18;;;;;;;1.17;1.17;;;26.30;99.90;;;;;;5092115;28;20160;-71
2021/07/21 06:15:44;;;;;;;1.15;1.15;;;25.90;99.90;;;;;;5091129;28;20198;-72
2021/07/21 06:18:10;;;;;;;0.90;0.90;;;26.10;99.90;;;;;;5091964;28;20163;-71
2021/07/21 06:20:37;;;;;;;2.97;1.48;;;26.30;99.90;;;;;;5092024;28;20159;-71
2021/07/21 06:23:03;;;;;;;3.83;1.70;;;25.80;99.90;;;;;;5090772;28;20187;-69
2021/07/21 06:25:30;;;;;;;2.20;1.80;;;26.10;99.90;;;;;;5091474;28;20211;-70
2021/07/21 06:27:56;;;;;;;2.72;1.63;;;25.90;99.90;;;;;;5091970;28;20219;-70
2021/07/21 06:30:22;;;;;;;1.55;1.45;;;25.80;99.90;;;;;;5091843;28;20198;-70
2021/07/21 06:32:48;;;;;;;1.65;1.42;;;26.50;99.90;;;;;;5091748;28;20159;-69
2021/07/21 06:35:14;;;;;;;5.38;2.03;;;26.60;99.90;;;;;;5091803;28;20197;-70
2021/07/21 06:37:40;;;;;;;1.65;1.55;;;26.50;99.90;;;;;;5091884;28;20163;-69
2021/07/21 06:40:08;;;;;;;1.48;1.38;;;26.40;99.90;;;;;;5091737;28;20185;-70
2021/07/21 06:42:34;;;;;;;2.95;1.88;;;25.80;99.90;;;;;;5091191;28;20203;-69
2021/07/21 06:45:00;;;;;;;2.95;2.03;;;26.30;99.90;;;;;;5091512;28;20182;-70
2021/07/21 06:47:26;;;;;;;1.08;1.02;;;25.90;99.90;;;;;;5091541;28;20219;-69
2021/07/21 06:49:52;;;;;;;0.68;0.68;;;25.40;99.90;;;;;;5090113;28;20559;-69
2021/07/21 06:52:21;;;;;;;1.20;1.10;;;24.90;99.90;;;;;;5091567;28;20155;-69
2021/07/21 06:54:47;;;;;;;1.23;1.15;;;24.80;99.90;;;;;;5091225;28;20175;-69
2021/07/21 06:57:13;;;;;;;0.88;0.88;;;25.50;99.90;;;;;;5091490;28;20200;-69
2021/07/21 06:59:39;;;;;;;4.78;1.50;;;26.10;99.90;;;;;;5091399;28;20197;-69
2021/07/21 07:02:06;;;;;;;1.30;1.23;;;25.80;99.90;;;;;;5091291;28;20167;-69
2021/07/21 07:04:33;;;;;;;1.27;0.93;;;26.20;99.90;;;;;;5090870;28;20210;-69
2021/07/21 07:06:59;;;;;;;1.92;0.98;;;26.00;99.90;;;;;;5091110;28;20213;-69
2021/07/21 07:09:25;;;;;;;0.63;0.63;;;26.10;99.90;;;;;;5089902;28;20713;-69
2021/07/21 07:11:52;;;;;;;1.45;1.35;;;26.90;99.90;;;;;;5091113;28;20235;-69
2021/07/21 07:14:21;;;;;;;2.28;1.25;;;26.50;99.90;;;;;;5090170;28;20195;-69
2021/07/21 07:16:47;;;;;;;5.72;1.92;;;25.70;99.90;;;;;;5091209;28;20159;-69
2021/07/21 07:19:13;;;;;;;0.47;0.47;;;25.90;99.90;;;;;;5090972;28;20170;-69
2021/07/21 07:21:39;;;;;;;1.20;1.10;;;26.10;99.90;;;;;;5089807;28;20617;-68
2021/07/21 07:24:09;;;;;;;4.35;1.48;;;27.50;99.90;;;;;;5090841;28;20195;-70
2021/07/21 07:26:35;;;;;;;2.30;0.82;;;28.90;99.90;;;;;;5089689;28;20316;-69
2021/07/21 07:29:03;;;;;;;2.25;2.05;;;28.10;99.90;;;;;;5089359;28;20199;-68
2021/07/21 07:31:29;;;;;;;2.03;1.52;;;27.50;99.90;;;;;;5089510;28;20231;-70
2021/07/21 07:33:55;;;;;;;1.63;1.52;;;27.70;99.90;;;;;;5090416;28;20199;-68
2021/07/21 07:36:20;;;;;;;1.85;1.75;;;27.70;99.90;;;;;;5090621;28;20211;-70
2021/07/21 07:38:46;;;;;;;1.90;1.80;;;27.70;99.90;;;;;;5090746;28;20156;-69
2021/07/21 07:41:13;;;;;;;1.00;0.90;;;28.10;99.90;;;;;;5090848;28;20160;-68
2021/07/21 07:43:39;;;;;;;1.52;1.42;;;27.10;99.90;;;;;;5090539;28;20198;-69
2021/07/21 07:46:07;;;;;;;7.13;1.70;;;27.90;99.90;;;;;;5088958;28;20175;-69
2021/07/21 07:48:34;;;;;;;1.98;1.48;;;28.10;99.90;;;;;;5090603;28;20167;-69
2021/07/21 07:51:00;;;;;;;1.98;1.80;;;28.00;99.90;;;;;;5090317;28;20183;-70
2021/07/21 07:53:26;;;;;;;3.40;1.92;;;28.30;99.90;;;;;;5089864;28;20207;-69
2021/07/21 07:55:52;;;;;;;1.58;0.90;;;28.70;99.90;;;;;;5090309;28;20215;-69
2021/07/21 07:58:18;;;;;;;2.83;1.90;;;28.90;99.90;;;;;;5090073;28;20164;-69
2021/07/21 08:00:44;;;;;;;1.50;1.40;;;29.30;99.90;;;;;;5090195;28;20630;-68
2021/07/21 08:03:10;;;;;;;2.70;2.25;;;30.60;99.90;;;;;;5090158;28;20198;-68
2021/07/21 08:05:38;;;;;;;4.35;2.30;;;30.00;99.90;;;;;;5090180;28;20178;-70
2021/07/21 08:08:05;;;;;;;2.90;1.77;;;30.60;99.90;;;;;;5090245;28;20185;-70
2021/07/21 08:10:32;;;;;;;1.70;1.10;;;30.60;99.90;;;;;;5090005;28;20184;-69
2021/07/21 08:12:59;;;;;;;1.50;1.40;;;30.80;99.90;;;;;;5089501;28;20206;-69
2021/07/21 08:15:25;;;;;;;2.40;1.23;;;29.70;99.90;;;;;;5089859;28;20210;-69
2021/07/21 08:17:52;;;;;;;3.28;2.35;;;29.40;99.90;;;;;;5089912;28;20147;-70
2021/07/21 08:20:18;;;;;;;1.58;1.48;;;29.40;99.90;;;;;;5088599;28;20195;-70
2021/07/21 08:22:44;;;;;;;13.25;1.98;;;30.20;99.90;;;;;;5089788;28;20160;-70
2021/07/21 08:25:13;;;;;;;4.03;2.58;;;30.80;99.90;;;;;;5088584;28;20273;-70
2021/07/21 08:27:39;;;;;;;2.58;1.27;;;30.90;99.90;;;;;;5089935;28;20155;-69
2021/07/21 08:30:12;;;;;;;4.13;2.03;;;29.00;99.90;;;;;;5088521;28;20218;-70
2021/07/21 08:32:50;;;;;;;7.90;3.75;;;29.00;99.90;;;;;;5089506;28;20162;-69
2021/07/21 08:35:25;;;;;;;2.22;1.98;;;29.70;99.90;;;;;;5089598;28;20158;-69
2021/07/21 08:37:51;;;;;;;8.70;1.52;;;28.30;99.90;;;;;;5089618;28;20162;-70
2021/07/21 08:40:19;;;;;;;2.92;1.08;;;28.60;99.90;;;;;;5089581;28;20186;-70
2021/07/21 08:42:45;;;;;;;1.98;1.88;;;29.90;99.90;;;;;;5089275;28;20155;-70
2021/07/21 08:45:12;;;;;;;1.58;1.48;;;30.60;99.90;;;;;;5088951;28;20260;-69
2021/07/21 08:47:39;;;;;;;2.17;1.77;;;29.90;99.90;;;;;;5089038;28;20215;-70
2021/07/21 08:50:07;;;;;;;2.72;1.20;;;30.10;99.90;;;;;;5089386;28;20191;-70
2021/07/21 08:52:34;;;;;;;1.73;1.38;;;31.00;99.90;;;;;;5089231;28;20167;-68
2021/07/21 08:55:03;;;;;;;2.45;1.65;;;32.00;99.90;;;;;;5089032;28;20198;-70
2021/07/21 08:57:30;;;;;;;2.60;1.65;;;31.90;99.90;;;;;;5089324;28;20152;-70
2021/07/21 08:59:59;;;;;;;2.15;1.20;;;31.70;99.90;;;;;;5089227;28;20175;-70
2021/07/21 09:02:26;;;;;;;1.65;1.23;;;31.70;99.90;;;;;;5089074;28;20152;-70
2021/07/21 09:04:53;;;;;;;2.35;1.38;;;32.20;99.90;;;;;;5088578;28;20195;-70
2021/07/21 09:07:20;;;;;;;2.22;1.38;;;32.00;99.90;;;;;;5089051;28;20248;-70
2021/07/21 09:09:46;;;;;;;2.53;1.48;;;30.90;99.90;;;;;;5088854;28;20222;-69
2021/07/21 09:12:13;;;;;;;2.70;2.13;;;29.80;99.90;;;;;;5089067;28;20156;-70
2021/07/21 09:14:40;;;;;;;5.13;1.55;;;29.60;99.90;;;;;;5081221;28;20238;-69
2021/07/21 09:17:07;;;;;;;1.35;1.25;;;29.30;99.90;;;;;;5083330;28;20187;-69
2021/07/21 09:19:38;;;;;;;1.77;1.30;;;29.10;99.90;;;;;;5071403;28;20182;-69
2021/07/21 09:22:20;;;;;;;2.08;1.80;;;28.60;99.90;;;;;;5071459;28;20156;-69
2021/07/21 09:25:09;;;;;;;2.78;1.02;;;29.40;99.90;;;;;;5086906;28;20191;-69
2021/07/21 09:27:35;;;;;;;2.58;1.77;;;30.10;99.90;;;;;;5088695;28;20156;-69
2021/07/21 09:30:00;;;;;;;3.53;1.40;;;30.00;99.90;;;;;;5088630;28;20191;-69
2021/07/21 09:32:26;;;;;;;2.45;2.25;;;29.20;99.90;;;;;;5088545;28;20233;-70
2021/07/21 09:34:53;;;;;;;5.90;1.33;;;28.20;99.90;;;;;;5088079;28;20214;-69
2021/07/21 09:37:21;;;;;;;1.65;1.55;;;29.00;99.90;;;;;;5088792;28;20164;-69
2021/07/21 09:39:50;;;;;;;2.28;1.58;;;30.10;99.90;;;;;;5088936;28;20244;-68
2021/07/21 09:42:17;;;;;;;1.63;1.30;;;30.30;99.90;;;;;;5088744;28;20172;-69
2021/07/21 09:44:45;;;;;;;1.83;1.55;;;30.00;99.90;;;;;;5088448;28;20195;-69
2021/07/21 09:47:21;;;;;;;1.35;1.05;;;30.60;99.90;;;;;;5088549;28;20280;-69
2021/07/21 09:49:48;;;;;;;2.03;1.60;;;30.90;99.90;;;;;;5068496;28;20251;-68
2021/07/21 09:52:18;;;;;;;1.92;1.42;;;30.80;99.90;;;;;;5068377;28;20160;-68
2021/07/21 09:55:05;;;;;;;7.85;1.92;;;30.50;99.90;;;;;;5078038;28;20520;-69
2021/07/21 09:57:31;;;;;;;1.92;1.67;;;29.70;99.90;;;;;;5087139;28;20273;-68
2021/07/21 09:59:58;;;;;;;3.58;1.23;;;30.40;99.90;;;;;;5088496;28;20151;-68
2021/07/21 10:02:25;;;;;;;2.75;1.00;;;30.30;99.90;;;;;;5088695;28;20159;-68
2021/07/21 10:04:52;;;;;;;6.47;1.92;;;29.90;99.90;;;;;;5086639;28;20226;-68
2021/07/21 10:07:49;;;;;;;2.17;1.63;;;29.60;99.90;;;;;;5088462;28;20613;-69
2021/07/21 10:10:21;;;;;;;4.93;2.00;;;29.10;99.90;;;;;;5088261;28;20207;-68
2021/07/21 10:13:05;;;;;;;2.92;1.55;;;29.10;99.90;;;;;;5087026;28;20183;-68
2021/07/21 10:15:32;;;;;;;1.38;0.90;;;29.90;99.90;;;;;;5088053;28;20563;-68
2021/07/21 10:18:15;;;;;;;2.97;1.67;;;30.60;99.90;;;;;;5088184;28;20152;-68
2021/07/21 10:20:43;;;;;;;2.05;1.60;;;30.80;99.90;;;;;;5086750;28;20214;-70
2021/07/21 10:23:11;;;;;;;1.63;1.40;;;30.30;99.90;;;;;;5102335;28;20254;-68
2021/07/21 10:25:38;;;;;;;0.70;0.70;;;30.90;99.90;;;;;;5091137;28;20542;-68
2021/07/21 10:28:08;;;;;;;2.22;2.00;;;30.10;99.90;;;;;;5086917;28;20205;-68
2021/07/21 10:30:36;;;;;;;1.77;1.38;;;29.20;99.90;;;;;;5086588;28;20192;-69
2021/07/21 10:33:03;;;;;;;0.88;0.88;;;29.60;99.90;;;;;;5088204;28;20160;-69
2021/07/21 10:35:31;;;;;;;1.73;1.60;;;29.60;99.90;;;;;;5087676;28;20192;-69
2021/07/21 10:37:58;;;;;;;1.90;1.67;;;30.10;99.90;;;;;;5086768;28;20183;-69
2021/07/21 10:40:28;;;;;;;1.05;0.95;;;29.30;99.90;;;;;;5088153;28;20174;-69
2021/07/21 10:42:56;;;;;;;2.55;1.23;;;28.90;99.90;;;;;;5087978;28;20155;-69
2021/07/21 10:45:30;;;;;;;1.15;1.13;;;28.90;99.90;;;;;;5086874;28;20221;-69
2021/07/21 10:53:32;;;;;;;4.43;2.10;;;28.60;99.90;;;;;;5082561;28;20195;-69
2021/07/21 10:59:11;;;;;;;2.60;1.83;;;29.60;99.90;;;;;;5091592;28;20209;-69
2021/07/21 11:01:44;;;;;;;1.92;1.50;;;29.90;99.90;;;;;;5091174;28;20173;-69
2021/07/21 11:04:11;;;;;;;2.97;1.88;;;30.60;99.90;;;;;;5091244;28;20624;-69
2021/07/21 11:06:42;;;;;;;1.95;1.40;;;31.70;99.90;;;;;;5090748;28;20195;-69
2021/07/21 11:09:41;;;;;;;0.90;0.90;;;31.00;99.90;;;;;;5091229;28;20209;-69
2021/07/21 11:12:07;;;;;;;2.95;2.17;;;30.90;99.90;;;;;;5086078;28;20251;-69
2021/07/21 11:14:34;;;;;;;2.20;1.20;;;31.10;99.90;;;;;;5091018;28;20148;-69
2021/07/21 11:17:10;;;;;;;1.17;1.17;;;30.70;99.90;;;;;;5090923;28;20191;-69
2021/07/21 11:19:41;;;;;;;1.13;1.13;;;30.90;99.90;;;;;;5089830;28;20238;-69
2021/07/21 11:22:12;;;;;;;2.33;1.85;;;30.70;99.90;;;;;;5089739;28;20175;-69
2021/07/21 11:25:05;;;;;;;1.05;0.95;;;30.20;99.90;;;;;;5091008;28;20245;-70
2021/07/21 11:27:37;;;;;;;2.67;0.90;;;30.30;99.90;;;;;;5070542;28;20253;-69
2021/07/21 11:30:03;;;;;;;2.88;2.67;;;30.40;99.90;;;;;;5070651;28;20184;-69
2021/07/21 11:32:30;;;;;;;12.23;2.17;;;30.10;99.90;;;;;;5070819;28;20164;-69
2021/07/21 11:34:57;;;;;;;2.08;1.88;;;30.40;99.90;;;;;;5070816;28;20617;-69
2021/07/21 11:37:32;;;;;;;3.75;1.80;;;30.50;99.90;;;;;;5089535;28;20210;-69
2021/07/21 11:40:12;;;;;;;2.10;1.52;;;30.60;99.90;;;;;;5090736;28;20220;-69
2021/07/21 11:42:39;;;;;;;4.38;1.35;;;30.90;99.90;;;;;;5090680;28;20164;-69
2021/07/21 11:45:13;;;;;;;1.90;1.80;;;31.10;99.90;;;;;;5090495;28;20170;-68
2021/07/21 11:47:59;;;;;;;1.50;1.27;;;32.20;99.90;;;;;;5090494;28;20233;-69
2021/07/21 11:50:32;;;;;;;1.75;1.27;;;31.70;99.90;;;;;;5090430;28;20282;-68
2021/07/21 11:53:01;;;;;;;2.25;2.05;;;30.10;99.90;;;;;;5090401;28;20246;-68
2021/07/21 11:55:36;;;;;;;0.52;0.52;;;29.80;99.90;;;;;;5089898;28;20210;-68
2021/07/21 11:58:15;;;;;;;1.58;1.48;;;30.70;99.90;;;;;;5090418;28;20178;-68
2021/07/21 12:00:50;;;;;;;2.60;1.40;;;31.60;99.90;;;;;;5089200;28;20202;-68
2021/07/21 12:03:16;;;;;;;11.25;2.45;;;32.00;99.90;;;;;;5090255;28;20159;-69
2021/07/21 12:05:57;;;;;;;2.22;0.77;;;31.90;99.90;;;;;;5089674;28;20699;-68
2021/07/21 12:08:23;;;;;;;1.25;0.88;;;31.20;99.90;;;;;;5090064;28;20162;-68
2021/07/21 12:10:50;;;;;;;1.85;1.75;;;31.10;99.90;;;;;;5090067;28;20191;-68
2021/07/21 12:13:19;;;;;;;3.70;2.45;;;31.80;99.90;;;;;;5090039;28;20152;-69
2021/07/21 12:15:46;;;;;;;3.03;1.63;;;31.80;99.90;;;;;;5089469;28;20206;-68
2021/07/21 12:18:14;;;;;;;1.15;1.05;;;31.50;99.90;;;;;;5089906;28;20156;-68
2021/07/21 12:20:43;;;;;;;1.45;1.35;;;31.20;99.90;;;;;;5089767;28;20159;-69
2021/07/21 12:23:09;;;;;;;1.73;1.50;;;30.70;99.90;;;;;;5089843;28;20193;-68
2021/07/21 12:25:35;;;;;;;3.10;1.75;;;28.50;99.90;;;;;;5089675;28;20170;-68
2021/07/21 12:28:01;;;;;;;1.63;1.52;;;27.00;99.90;;;;;;5088944;28;20171;-68
2021/07/21 12:30:35;;;;;;;2.55;1.65;;;26.70;99.90;;;;;;5089606;28;20191;-68
2021/07/21 12:33:02;;;;;;;2.67;1.92;;;26.70;99.90;;;;;;5089600;28;20158;-69
2021/07/21 12:35:30;;;;;;;1.88;1.27;;;27.00;99.90;;;;;;5089669;28;20166;-68
2021/07/21 12:37:58;;;;;;;1.13;1.13;;;27.20;99.90;;;;;;5088871;28;20198;-68
2021/07/21 12:40:30;;;;;;;3.67;2.17;;;27.00;99.90;;;;;;5089238;28;20175;-68
2021/07/21 12:42:59;;;;;;;1.33;1.10;;;26.80;99.90;;;;;;5089541;28;20564;-68
2021/07/21 12:45:27;;;;;;;1.27;0.88;;;26.40;99.90;;;;;;5089293;28;20178;-68
2021/07/21 12:47:55;;;;;;;0.63;0.63;;;26.70;99.90;;;;;;5089155;28;20334;-68
2021/07/21 12:50:30;;;;;;;2.15;1.92;;;26.60;99.90;;;;;;5089135;28;20203;-68
2021/07/21 12:53:02;;;;;;;7.60;2.90;;;26.40;99.90;;;;;;5089016;28;20167;-68
2021/07/21 12:55:35;;;;;;;1.70;1.33;;;26.50;99.90;;;;;;5085655;28;20198;-68
2021/07/21 12:58:04;;;;;;;1.52;1.42;;;26.50;99.90;;;;;;5088698;28;20210;-68
2021/07/21 13:00:31;;;;;;;1.58;1.05;;;26.80;99.90;;;;;;5088994;28;20175;-67
2021/07/21 13:03:06;;;;;;;1.17;0.65;;;27.00;99.90;;;;;;5087824;28;20172;-68
2021/07/21 13:05:40;;;;;;;2.08;1.88;;;27.20;99.90;;;;;;5089098;28;20194;-68
2021/07/21 13:08:10;;;;;;;1.48;0.88;;;27.40;99.90;;;;;;5088851;28;20267;-68